Time;durP1;ratioP1;P1;durP2;ratioP2;P2;SDS_P1;SDS_P2;PMS_P1;PMS_P2;Temp;Humidity;BMP_temperature;BMP_pressure;BME280_temperature;BME280_humidity;BME280_pressure;Samples;Min_cycle;Max_cycle;Signal;HPM_P1;HPM_P2
2023/01/13 00:01:06;;;;;;;0.30;0.20;;;;;;;11.37;100.00;99645.69;5014479;28;20945;-54
2023/01/13 00:03:33;;;;;;;0.50;0.30;;;;;;;11.29;100.00;99656.69;5032154;28;20502;-55
2023/01/13 00:06:00;;;;;;;0.30;0.20;;;;;;;11.35;100.00;99643.09;5031987;28;20482;-55
2023/01/13 00:08:26;;;;;;;5.97;0.97;;;;;;;11.47;100.00;99631.06;5030759;28;20473;-55
2023/01/13 00:10:53;;;;;;;0.43;0.37;;;;;;;11.37;100.00;99638.59;5031953;28;20510;-55
2023/01/13 00:13:25;;;;;;;0.87;0.87;;;;;;;11.43;100.00;99632.16;5031606;28;20491;-55
2023/01/13 00:15:59;;;;;;;0.50;0.40;;;;;;;11.43;100.00;99627.69;5032255;28;20470;-55
2023/01/13 00:18:26;;;;;;;0.40;0.30;;;;;;;11.50;100.00;99630.94;5031871;28;20487;-55
2023/01/13 00:21:11;;;;;;;2.07;0.53;;;;;;;11.47;100.00;99621.31;5032010;28;20466;-55
2023/01/13 00:23:38;;;;;;;0.40;0.20;;;;;;;11.47;100.00;99623.09;5010083;28;20945;-54
2023/01/13 00:26:08;;;;;;;0.43;0.30;;;;;;;11.43;100.00;99618.84;5014591;28;20489;-55
2023/01/13 00:28:36;;;;;;;0.40;0.30;;;;;;;11.31;100.00;99616.69;5031741;28;21054;-55
2023/01/13 00:31:05;;;;;;;0.30;0.20;;;;;;;11.46;100.00;99613.38;5035325;28;20455;-55
2023/01/13 00:33:32;;;;;;;0.50;0.30;;;;;;;11.37;100.00;99624.41;5035593;28;20569;-54
2023/01/13 00:35:59;;;;;;;0.30;0.20;;;;;;;11.32;100.00;99615.78;5021963;28;20447;-54
2023/01/13 00:38:27;;;;;;;0.47;0.33;;;;;;;11.34;100.00;99614.78;5035227;28;20988;-55
2023/01/13 00:40:58;;;;;;;0.30;0.20;;;;;;;11.42;100.00;99598.50;5034896;28;20481;-55
2023/01/13 00:43:26;;;;;;;0.30;0.20;;;;;;;11.50;100.00;99596.34;5027152;28;20448;-55
2023/01/13 00:45:53;;;;;;;0.40;0.20;;;;;;;11.34;100.00;99598.81;5035367;28;20505;-54
2023/01/13 00:48:21;;;;;;;0.30;0.20;;;;;;;11.32;100.00;99584.72;5035409;28;20502;-54
2023/01/13 00:50:58;;;;;;;0.50;0.40;;;;;;;11.41;100.00;99586.13;5035155;28;20945;-55
2023/01/13 00:53:26;;;;;;;0.30;0.20;;;;;;;11.38;100.00;99587.13;5035343;28;20491;-55
2023/01/13 00:56:06;;;;;;;0.30;0.20;;;;;;;11.38;100.00;99586.25;5035214;28;21363;-55
2023/01/13 00:58:34;;;;;;;0.30;0.20;;;;;;;11.37;100.00;99580.03;5035170;28;20475;-55
2023/01/13 01:01:02;;;;;;;0.40;0.20;;;;;;;11.55;100.00;99578.41;5035201;28;20782;-55
2023/01/13 01:03:29;;;;;;;0.30;0.20;;;;;;;11.45;100.00;99582.38;5034897;28;20519;-55
2023/01/13 01:06:02;;;;;;;0.30;0.20;;;;;;;11.47;100.00;99578.72;5025541;28;20455;-54
2023/01/13 01:08:28;;;;;;;0.30;0.20;;;;;;;11.49;100.00;99586.63;5014992;28;20555;-55
2023/01/13 01:11:09;;;;;;;0.77;0.40;;;;;;;11.58;100.00;99579.13;5035024;28;20452;-54
2023/01/13 01:13:36;;;;;;;0.33;0.23;;;;;;;11.49;100.00;99576.00;5028763;28;20484;-55
2023/01/13 01:16:08;;;;;;;0.40;0.20;;;;;;;11.48;100.00;99577.78;5027808;28;20451;-55
2023/01/13 01:18:36;;;;;;;0.30;0.20;;;;;;;11.51;100.00;99575.00;5034903;28;20525;-55
2023/01/13 01:21:04;;;;;;;0.30;0.20;;;;;;;11.58;100.00;99579.13;5017346;28;20448;-55
2023/01/13 01:23:31;;;;;;;0.40;0.20;;;;;;;11.60;100.00;99573.72;5034879;28;20505;-55
2023/01/13 01:26:06;;;;;;;0.40;0.20;;;;;;;11.60;100.00;99575.53;5034029;28;20520;-55
2023/01/13 01:28:33;;;;;;;0.30;0.20;;;;;;;11.51;100.00;99580.34;5023408;28;20471;-55
2023/01/13 01:31:05;;;;;;;1.90;0.40;;;;;;;11.62;100.00;99573.66;5034477;28;21015;-55
2023/01/13 01:33:32;;;;;;;0.30;0.20;;;;;;;11.53;100.00;99570.47;5034541;28;20526;-55
2023/01/13 01:36:00;;;;;;;0.30;0.20;;;;;;;11.56;100.00;99573.00;5021580;28;20502;-55
2023/01/13 01:38:26;;;;;;;1.03;0.27;;;;;;;11.44;100.00;99568.22;5034872;28;20534;-55
2023/01/13 01:40:53;;;;;;;0.30;0.20;;;;;;;11.47;100.00;99565.41;5020410;28;20944;-55
2023/01/13 01:46:06;;;;;;;0.30;0.20;;;;;;;11.50;100.00;99556.41;5034571;28;20501;-56
2023/01/13 01:48:37;;;;;;;0.40;0.20;;;;;;;11.46;100.00;99554.84;5034020;28;20891;-55
2023/01/13 01:51:08;;;;;;;0.30;0.20;;;;;;;11.36;100.00;99562.34;5034227;28;20498;-55
2023/01/13 01:53:34;;;;;;;0.40;0.30;;;;;;;11.36;100.00;99556.16;5033938;28;21000;-55
2023/01/13 01:56:02;;;;;;;0.40;0.30;;;;;;;11.26;100.00;99556.59;5034311;28;20498;-55
2023/01/13 01:58:36;;;;;;;0.50;0.30;;;;;;;11.37;100.00;99558.75;5034037;28;20480;-55
2023/01/13 02:01:03;;;;;;;0.30;0.20;;;;;;;11.43;100.00;99545.19;5034149;28;20451;-55
2023/01/13 02:03:29;;;;;;;0.40;0.20;;;;;;;11.44;100.00;99549.59;5033830;28;20476;-55
2023/01/13 02:05:56;;;;;;;0.40;0.30;;;;;;;11.51;100.00;99550.16;5033794;28;20952;-55
2023/01/13 02:08:22;;;;;;;0.50;0.20;;;;;;;11.43;100.00;99547.84;5033796;28;20502;-56
2023/01/13 02:10:52;;;;;;;0.30;0.20;;;;;;;11.46;100.00;99541.53;5034017;28;20497;-55
2023/01/13 02:13:21;;;;;;;2.57;0.40;;;;;;;11.53;100.00;99549.19;5033880;28;20498;-56
2023/01/13 02:16:15;;;;;;;0.60;0.20;;;;;;;11.48;100.00;99545.84;5033745;28;20506;-55
2023/01/13 02:18:58;;;;;;;0.30;0.20;;;;;;;11.58;100.00;99543.66;5010505;28;20476;-55
2023/01/13 02:21:37;;;;;;;0.30;0.20;;;;;;;11.53;100.00;99543.00;5033615;28;20448;-55
2023/01/13 02:24:54;;;;;;;0.30;0.20;;;;;;;11.35;100.00;99534.00;5033546;28;20987;-56
2023/01/13 02:27:47;;;;;;;0.40;0.30;;;;;;;11.42;100.00;99531.97;5019223;28;20981;-55
2023/01/13 02:33:34;;;;;;;0.30;0.20;;;;;;;11.27;100.00;99521.06;5033434;28;20881;-55
2023/01/13 02:36:10;;;;;;;0.30;0.20;;;;;;;11.32;100.00;99522.66;5019992;28;20502;-55
2023/01/13 02:38:48;;;;;;;0.30;0.20;;;;;;;11.28;100.00;99512.16;5033074;28;20491;-55
2023/01/13 02:44:11;;;;;;;0.30;0.20;;;;;;;11.27;100.00;99502.44;5030986;28;20871;-56
2023/01/13 02:46:59;;;;;;;0.30;0.20;;;;;;;11.15;100.00;99486.16;5033154;28;20960;-55
2023/01/13 02:49:32;;;;;;;0.40;0.20;;;;;;;11.26;100.00;99500.72;5008429;28;20474;-55
2023/01/13 02:52:06;;;;;;;0.30;0.20;;;;;;;11.46;100.00;99488.31;5019371;28;20510;-55
2023/01/13 02:54:36;;;;;;;0.30;0.20;;;;;;;11.50;100.00;99489.88;5033197;28;20459;-55
2023/01/13 02:57:05;;;;;;;0.30;0.20;;;;;;;11.37;100.00;99492.22;5032995;28;20979;-55
2023/01/13 02:59:33;;;;;;;0.30;0.20;;;;;;;11.50;100.00;99482.75;5033036;28;20514;-55
2023/01/13 03:02:02;;;;;;;0.30;0.20;;;;;;;11.65;100.00;99491.00;5032715;28;20510;-56
2023/01/13 03:04:50;;;;;;;0.30;0.20;;;;;;;11.38;100.00;99488.66;5033125;28;20544;-55
2023/01/13 03:07:47;;;;;;;0.40;0.30;;;;;;;11.39;100.00;99484.22;5007967;28;20526;-56
2023/01/13 03:10:34;;;;;;;0.30;0.20;;;;;;;11.40;100.00;99484.13;5032455;28;20814;-55
2023/01/13 03:13:30;;;;;;;0.30;0.20;;;;;;;11.37;100.00;99470.09;5032771;28;20497;-56
2023/01/13 03:16:06;;;;;;;0.30;0.20;;;;;;;11.48;100.00;99473.13;5032710;28;20557;-55
2023/01/13 03:19:01;;;;;;;0.63;0.20;;;;;;;11.36;100.00;99476.34;5007034;28;20505;-55
2023/01/13 03:21:47;;;;;;;0.30;0.20;;;;;;;11.32;100.00;99477.41;5032646;28;20470;-55
2023/01/13 03:24:34;;;;;;;0.30;0.20;;;;;;;11.47;100.00;99479.38;5032567;28;20444;-55
2023/01/13 03:27:07;;;;;;;0.30;0.20;;;;;;;11.44;100.00;99479.53;5032881;28;20443;-55
2023/01/13 03:29:39;;;;;;;0.40;0.30;;;;;;;11.45;100.00;99466.16;5032338;28;20807;-55
2023/01/13 03:32:32;;;;;;;0.90;0.40;;;;;;;11.38;100.00;99470.03;5032595;28;20988;-55
2023/01/13 03:35:07;;;;;;;1.33;0.30;;;;;;;11.40;100.00;99473.50;5001873;28;20448;-55
2023/01/13 03:37:39;;;;;;;0.30;0.20;;;;;;;11.43;100.00;99472.47;5028818;28;20820;-55
2023/01/13 03:40:12;;;;;;;0.33;0.27;;;;;;;11.67;100.00;99463.38;5032362;28;20929;-55
2023/01/13 03:44:20;;;;;;;0.30;0.20;;;;;;;11.34;100.00;99456.94;5022314;28;20451;-56
2023/01/13 03:45:32;;;;;;;0.30;0.20;;;;;;;11.45;100.00;99454.66;5032080;28;20535;-56
2023/01/13 03:48:01;;;;;;;0.30;0.20;;;;;;;11.36;100.00;99455.06;5032167;28;20476;-56
2023/01/13 03:50:37;;;;;;;0.30;0.20;;;;;;;11.20;100.00;99463.72;5032386;28;20460;-56
2023/01/13 03:53:10;;;;;;;0.30;0.20;;;;;;;11.26;100.00;99451.97;5032359;28;20487;-55
2023/01/13 03:55:41;;;;;;;0.40;0.20;;;;;;;11.33;100.00;99457.88;5031973;28;20450;-56
2023/01/13 03:58:23;;;;;;;0.30;0.20;;;;;;;11.30;100.00;99450.88;5032173;28;20464;-56
2023/01/13 04:00:55;;;;;;;0.30;0.20;;;;;;;11.42;100.00;99447.69;5007632;28;20971;-55
2023/01/13 04:03:40;;;;;;;0.30;0.20;;;;;;;11.34;100.00;99452.47;5032080;28;20929;-56
2023/01/13 04:06:33;;;;;;;0.30;0.20;;;;;;;11.36;100.00;99449.72;5018422;28;20822;-56
2023/01/13 04:09:21;;;;;;;0.30;0.20;;;;;;;11.40;100.00;99444.22;5010132;28;20479;-55
2023/01/13 04:12:07;;;;;;;0.30;0.20;;;;;;;11.37;100.00;99447.00;5036202;28;20465;-55
2023/01/13 04:14:35;;;;;;;0.30;0.20;;;;;;;11.41;100.00;99437.09;5018412;28;20483;-54
2023/01/13 04:17:01;;;;;;;0.30;0.20;;;;;;;11.48;100.00;99439.41;5036015;28;20949;-54
2023/01/13 04:19:28;;;;;;;0.40;0.20;;;;;;;11.42;100.00;99437.03;5036193;28;20493;-55
2023/01/13 04:21:54;;;;;;;0.40;0.20;;;;;;;11.35;100.00;99437.38;5036181;28;20819;-55
2023/01/13 04:24:20;;;;;;;0.40;0.30;;;;;;;11.30;100.00;99424.28;5035972;28;20822;-55
2023/01/13 04:26:47;;;;;;;0.30;0.20;;;;;;;11.37;100.00;99438.16;5036087;28;20451;-55
2023/01/13 04:29:13;;;;;;;0.30;0.20;;;;;;;11.31;100.00;99430.47;5035661;28;20467;-55
2023/01/13 04:31:41;;;;;;;0.40;0.20;;;;;;;11.30;100.00;99432.25;5035800;28;20452;-55
2023/01/13 04:34:09;;;;;;;0.50;0.30;;;;;;;11.22;100.00;99429.06;5035350;28;20881;-55
2023/01/13 04:36:36;;;;;;;3.20;0.50;;;;;;;11.28;100.00;99434.13;5035494;28;20816;-55
2023/01/13 04:39:02;;;;;;;0.30;0.20;;;;;;;11.45;100.00;99428.91;5034181;28;20476;-55
2023/01/13 04:41:56;;;;;;;0.30;0.20;;;;;;;11.32;100.00;99422.41;5029288;28;20456;-56
2023/01/13 04:44:18;;;;;;;0.63;0.30;;;;;;;11.35;100.00;99426.72;5032873;28;21011;-55
2023/01/13 04:46:45;;;;;;;0.40;0.30;;;;;;;11.29;100.00;99430.53;5034370;28;20815;-55
2023/01/13 04:49:12;;;;;;;0.30;0.20;;;;;;;11.33;100.00;99426.78;5033881;28;21079;-55
2023/01/13 04:51:38;;;;;;;0.30;0.20;;;;;;;11.22;100.00;99431.72;5016754;28;20498;-55
2023/01/13 04:54:04;;;;;;;0.30;0.20;;;;;;;11.39;100.00;99418.56;5033959;28;20487;-55
2023/01/13 04:56:31;;;;;;;0.30;0.20;;;;;;;11.26;100.00;99431.56;5034052;28;20458;-55
2023/01/13 04:58:57;;;;;;;0.40;0.20;;;;;;;11.19;100.00;99432.75;5033662;28;20951;-55
2023/01/13 05:01:24;;;;;;;0.30;0.20;;;;;;;11.25;100.00;99440.47;5034387;28;20451;-55
2023/01/13 05:03:50;;;;;;;0.30;0.20;;;;;;;11.17;100.00;99431.09;5033787;28;20447;-55
2023/01/13 05:06:17;;;;;;;0.30;0.20;;;;;;;11.26;100.00;99434.22;5033946;28;20440;-55
2023/01/13 05:08:43;;;;;;;0.30;0.20;;;;;;;11.36;100.00;99457.72;5033650;28;20522;-55
2023/01/13 05:19:24;;;;;;;0.40;0.30;;;;;;;10.91;100.00;99493.38;5033603;28;20464;-56
2023/01/13 05:27:20;;;;;;;4.43;1.00;;;;;;;10.89;100.00;99493.47;5021422;28;20551;-55
2023/01/13 05:29:47;;;;;;;0.40;0.20;;;;;;;10.74;100.00;99491.44;5032546;28;20542;-54
2023/01/13 05:32:13;;;;;;;0.30;0.20;;;;;;;10.79;100.00;99497.44;5033500;28;20940;-55
2023/01/13 05:34:40;;;;;;;0.40;0.30;;;;;;;10.78;100.00;99501.03;5027069;28;20485;-54
2023/01/13 05:37:07;;;;;;;0.30;0.20;;;;;;;10.88;100.00;99506.81;4988871;28;1074910;-55
2023/01/13 05:45:03;;;;;;;0.40;0.23;;;;;;;10.83;100.00;99525.63;5034569;28;20490;-54
2023/01/13 05:47:31;;;;;;;0.50;0.30;;;;;;;10.83;100.00;99519.47;5034462;28;20875;-54
2023/01/13 05:49:57;;;;;;;0.30;0.20;;;;;;;10.71;100.00;99536.78;5034447;28;20451;-54
2023/01/13 05:52:24;;;;;;;0.30;0.20;;;;;;;10.61;100.00;99551.38;5034239;28;20451;-54
2023/01/13 05:54:50;;;;;;;0.40;0.20;;;;;;;10.57;100.00;99549.75;5034131;28;20499;-54
2023/01/13 05:57:16;;;;;;;0.37;0.27;;;;;;;10.58;100.00;99560.31;5033778;28;20467;-54
2023/01/13 05:59:43;;;;;;;0.30;0.20;;;;;;;10.50;100.00;99565.06;5034259;28;20498;-54
2023/01/13 06:02:09;;;;;;;0.70;0.70;;;;;;;10.64;100.00;99567.19;5033908;28;20448;-54
2023/01/13 06:04:36;;;;;;;0.37;0.27;;;;;;;10.30;100.00;99565.88;5033900;28;20519;-53
2023/01/13 06:07:02;;;;;;;0.30;0.20;;;;;;;10.46;100.00;99567.94;5033728;28;20452;-54
2023/01/13 06:09:28;;;;;;;0.40;0.30;;;;;;;10.54;100.00;99564.00;5033730;28;20454;-54
2023/01/13 06:11:55;;;;;;;0.40;0.20;;;;;;;10.58;100.00;99559.47;5033709;28;20451;-54
2023/01/13 06:14:22;;;;;;;0.30;0.20;;;;;;;10.27;100.00;99567.75;5033865;28;20545;-54
2023/01/13 06:16:48;;;;;;;0.30;0.20;;;;;;;10.21;100.00;99558.25;5033516;28;20456;-53
2023/01/13 06:19:15;;;;;;;0.30;0.20;;;;;;;10.16;100.00;99530.13;5021245;28;20547;-54
2023/01/13 06:21:43;;;;;;;0.30;0.20;;;;;;;10.18;100.00;99520.31;5032641;28;20941;-54
2023/01/13 06:24:10;;;;;;;0.73;0.30;;;;;;;10.03;100.00;99537.69;5033560;28;20444;-53
2023/01/13 06:26:40;;;;;;;0.83;0.83;;;;;;;9.98;100.00;99535.19;5033073;28;20451;-53
2023/01/13 06:29:08;;;;;;;0.30;0.20;;;;;;;10.03;100.00;99545.66;5033355;28;20468;-52
2023/01/13 06:31:37;;;;;;;0.30;0.30;;;;;;;9.90;100.00;99533.78;5033512;28;20536;-53
2023/01/13 06:34:12;;;;;;;0.40;0.30;;;;;;;10.08;100.00;99533.06;5031760;28;20494;-54
2023/01/13 06:36:44;;;;;;;0.30;0.20;;;;;;;9.94;100.00;99530.94;5022629;28;20570;-53
2023/01/13 06:39:14;;;;;;;0.40;0.20;;;;;;;9.93;100.00;99529.22;5033015;28;20475;-53
2023/01/13 06:44:27;;;;;;;1.80;0.57;;;;;;;9.99;100.00;99526.31;5007787;28;20448;-54
2023/01/13 06:46:54;;;;;;;0.37;0.20;;;;;;;10.05;100.00;99534.06;5032913;28;20451;-54
2023/01/13 06:49:20;;;;;;;0.50;0.20;;;;;;;9.88;100.00;99551.56;5033144;28;21317;-54
2023/01/13 06:51:47;;;;;;;1.00;0.40;;;;;;;9.93;100.00;99546.94;5033119;28;20562;-53
2023/01/13 06:54:13;;;;;;;0.50;0.30;;;;;;;9.96;100.00;99541.50;5033002;28;20863;-53
2023/01/13 06:56:40;;;;;;;0.30;0.20;;;;;;;10.00;100.00;99540.44;5032854;28;20518;-53
2023/01/13 06:59:07;;;;;;;0.47;0.47;;;;;;;9.82;100.00;99544.69;5032717;28;20553;-52
2023/01/13 07:01:33;;;;;;;0.80;0.80;;;;;;;9.86;100.00;99542.75;5032635;28;20505;-52
2023/01/13 07:03:59;;;;;;;0.40;0.27;;;;;;;9.83;100.00;99545.53;5032989;28;20506;-53
2023/01/13 07:06:26;;;;;;;0.70;0.57;;;;;;;9.79;100.00;99543.00;5032900;28;20490;-54
2023/01/13 07:08:52;;;;;;;0.30;0.20;;;;;;;9.75;100.00;99546.72;5032638;28;20518;-54
2023/01/13 07:11:19;;;;;;;0.40;0.30;;;;;;;9.72;100.00;99561.84;5032810;28;20747;-53
2023/01/13 07:16:30;;;;;;;0.33;0.20;;;;;;;9.62;100.00;99573.75;5032672;28;20447;-53
2023/01/13 07:18:56;;;;;;;0.73;0.73;;;;;;;9.68;100.00;99574.38;5032784;28;20563;-54
2023/01/13 07:21:23;;;;;;;0.30;0.20;;;;;;;9.62;100.00;99571.09;5032564;28;20534;-53
2023/01/13 07:23:49;;;;;;;0.30;0.20;;;;;;;9.66;100.00;99583.31;5032777;28;20443;-53
2023/01/13 07:26:16;;;;;;;0.30;0.20;;;;;;;9.75;100.00;99580.34;5032423;28;20502;-54
2023/01/13 07:28:42;;;;;;;0.30;0.20;;;;;;;9.78;100.00;99588.19;5032244;28;20467;-53
2023/01/13 07:31:17;;;;;;;0.50;0.50;;;;;;;9.63;100.00;99576.34;5032532;28;20455;-54
2023/01/13 07:33:44;;;;;;;0.30;0.20;;;;;;;9.70;100.00;99575.19;5032552;28;20525;-53
2023/01/13 07:36:15;;;;;;;0.30;0.20;;;;;;;9.73;100.00;99583.06;5018192;28;20470;-53
2023/01/13 07:38:43;;;;;;;0.30;0.20;;;;;;;9.79;100.00;99596.09;5031889;28;20482;-53
2023/01/13 07:43:59;;;;;;;1.57;0.40;;;;;;;9.73;100.00;99614.00;5028387;28;21004;-53
2023/01/13 07:46:25;;;;;;;0.60;0.60;;;;;;;9.85;100.00;99618.00;5032290;28;20455;-54
2023/01/13 07:48:52;;;;;;;0.83;0.50;;;;;;;9.71;100.00;99629.13;5032056;28;20486;-54
2023/01/13 07:51:18;;;;;;;0.40;0.30;;;;;;;9.82;100.00;99642.88;5032155;28;20458;-54
2023/01/13 07:53:45;;;;;;;0.30;0.20;;;;;;;9.74;100.00;99648.47;5031838;28;20492;-53
2023/01/13 07:56:11;;;;;;;1.43;0.27;;;;;;;9.63;100.00;99652.44;5032183;28;20974;-51
2023/01/13 07:58:38;;;;;;;0.40;0.20;;;;;;;9.69;100.00;99660.16;5018899;28;20467;-53
2023/01/13 08:01:12;;;;;;;0.30;0.20;;;;;;;9.82;100.00;99656.16;5032244;28;20458;-54
2023/01/13 08:03:39;;;;;;;0.30;0.20;;;;;;;9.64;100.00;99654.16;5031847;28;20952;-54
2023/01/13 08:06:06;;;;;;;0.30;0.30;;;;;;;9.76;100.00;99659.91;5031970;28;20498;-54
2023/01/13 08:08:32;;;;;;;0.53;0.30;;;;;;;9.72;100.00;99655.59;5031911;28;20509;-54
2023/01/13 08:11:03;;;;;;;0.30;0.20;;;;;;;9.78;100.00;99667.81;5032155;28;20456;-53
2023/01/13 08:13:30;;;;;;;0.40;0.40;;;;;;;9.76;100.00;99674.97;5031971;28;20466;-54
2023/01/13 08:16:05;;;;;;;2.97;0.40;;;;;;;9.80;100.00;99680.09;5032002;28;20456;-54
2023/01/13 08:18:32;;;;;;;1.80;0.53;;;;;;;9.75;100.00;99675.88;5005836;28;20471;-53
2023/01/13 08:21:07;;;;;;;0.60;0.60;;;;;;;9.92;100.00;99664.66;5031672;28;20455;-53
2023/01/13 08:23:34;;;;;;;0.67;0.50;;;;;;;10.03;100.00;99673.09;5032076;28;20447;-53
2023/01/13 08:26:01;;;;;;;0.80;0.43;;;;;;;10.03;100.00;99673.97;5031916;28;20456;-53
2023/01/13 08:28:30;;;;;;;0.50;0.30;;;;;;;10.02;100.00;99672.25;5031860;28;20474;-54
2023/01/13 08:31:04;;;;;;;0.53;0.30;;;;;;;10.00;100.00;99675.84;5031714;28;20456;-53
2023/01/13 08:33:31;;;;;;;0.30;0.20;;;;;;;10.19;100.00;99674.28;5032097;28;20523;-51
2023/01/13 08:35:58;;;;;;;0.43;0.30;;;;;;;10.00;100.00;99676.72;5018589;28;20440;-54
2023/01/13 08:38:24;;;;;;;0.50;0.50;;;;;;;10.18;100.00;99675.19;5031454;28;20491;-53
2023/01/13 08:40:51;;;;;;;0.30;0.20;;;;;;;10.21;100.00;99683.09;5031475;28;20451;-53
2023/01/13 08:43:17;;;;;;;0.40;0.30;;;;;;;10.07;100.00;99680.91;5022628;28;20448;-54
2023/01/13 08:45:44;;;;;;;0.63;0.63;;;;;;;10.29;100.00;99683.69;5031495;28;20447;-54
2023/01/13 08:48:10;;;;;;;0.97;0.97;;;;;;;10.32;99.63;99691.53;5031915;28;20503;-52
2023/01/13 08:50:37;;;;;;;0.30;0.20;;;;;;;10.42;99.30;99691.19;5019815;28;20432;-54
2023/01/13 08:53:03;;;;;;;0.50;0.50;;;;;;;10.24;99.60;99693.59;5035307;28;20447;-53
2023/01/13 08:55:29;;;;;;;0.50;0.40;;;;;;;10.35;99.16;99696.72;5035088;28;20491;-53
2023/01/13 08:57:56;;;;;;;0.30;0.20;;;;;;;10.43;99.08;99696.44;5035118;28;20479;-53
2023/01/13 09:00:41;;;;;;;0.47;0.40;;;;;;;10.36;99.14;99703.75;5035112;28;20534;-53
2023/01/13 09:03:07;;;;;;;0.40;0.30;;;;;;;10.65;98.46;99704.44;5035081;28;20904;-53
2023/01/13 09:05:34;;;;;;;0.40;0.20;;;;;;;10.53;97.83;99710.22;5035161;28;20448;-54
2023/01/13 09:08:01;;;;;;;1.23;0.67;;;;;;;10.61;98.20;99711.69;5034728;28;21022;-53
2023/01/13 09:10:27;;;;;;;2.20;0.30;;;;;;;10.41;97.52;99716.88;5035038;28;20452;-54
2023/01/13 09:13:11;;;;;;;0.60;0.30;;;;;;;10.62;96.11;99715.22;5034683;28;20455;-52
2023/01/13 09:15:44;;;;;;;0.30;0.20;;;;;;;10.52;95.85;99727.09;5035091;28;20522;-54
2023/01/13 09:18:12;;;;;;;0.73;0.73;;;;;;;10.56;96.01;99732.25;5034692;28;20467;-54
2023/01/13 09:20:38;;;;;;;1.47;0.60;;;;;;;10.63;95.94;99738.19;5034780;28;20448;-54
2023/01/13 09:23:06;;;;;;;0.40;0.20;;;;;;;10.64;95.29;99735.47;5034672;28;20979;-54
2023/01/13 09:25:36;;;;;;;0.40;0.30;;;;;;;10.44;95.35;99745.13;5034660;28;20538;-54
2023/01/13 09:28:07;;;;;;;0.30;0.20;;;;;;;10.57;93.97;99751.72;5021375;28;20479;-54
2023/01/13 09:30:35;;;;;;;3.60;2.20;;;;;;;10.39;94.62;99754.13;5034741;28;20481;-54
2023/01/13 09:35:46;;;;;;;6.40;0.40;;;;;;;10.78;95.21;99756.22;5020820;28;20487;-53
2023/01/13 09:38:12;;;;;;;0.60;0.60;;;;;;;10.95;95.44;99751.13;5034305;28;20480;-54
2023/01/13 09:40:42;;;;;;;0.93;0.40;;;;;;;11.01;95.14;99750.03;5034338;28;20940;-54
2023/01/13 09:49:03;;;;;;;0.93;0.40;;;;;;;10.92;94.55;99751.25;5034078;28;20467;-54
2023/01/13 09:51:41;;;;;;;0.87;0.40;;;;;;;10.92;93.10;99748.59;5034004;28;20550;-53
2023/01/13 09:54:19;;;;;;;1.80;0.40;;;;;;;10.96;92.37;99755.53;5024951;28;20799;-54
2023/01/13 09:56:46;;;;;;;0.50;0.40;;;;;;;10.84;92.26;99756.00;5018259;28;20450;-54
2023/01/13 09:59:12;;;;;;;4.23;0.53;;;;;;;10.82;91.85;99755.16;5034024;28;20472;-54
2023/01/13 10:02:02;;;;;;;2.57;0.50;;;;;;;10.83;93.00;99748.09;5033193;28;20802;-54
2023/01/13 10:04:29;;;;;;;0.90;0.70;;;;;;;10.72;94.27;99747.63;5034100;28;20446;-54
2023/01/13 10:07:02;;;;;;;4.83;0.43;;;;;;;10.80;92.78;99754.38;5033794;28;20569;-54
2023/01/13 10:09:38;;;;;;;10.80;1.17;;;;;;;10.89;92.62;99755.81;5034192;28;20447;-54
2023/01/13 10:14:58;;;;;;;0.80;0.77;;;;;;;10.72;93.37;99756.47;5033582;28;20519;-54
2023/01/13 10:17:39;;;;;;;1.27;0.87;;;;;;;10.78;92.92;99758.88;5033633;28;20474;-54
2023/01/13 10:20:05;;;;;;;3.30;0.60;;;;;;;10.94;93.03;99765.34;5033827;28;20494;-54
2023/01/13 10:22:59;;;;;;;0.50;0.30;;;;;;;11.06;93.65;99755.16;5033639;28;20451;-54
2023/01/13 10:25:40;;;;;;;0.93;0.93;;;;;;;11.18;92.59;99750.22;5033712;28;20447;-55
2023/01/13 10:28:12;;;;;;;0.30;0.30;;;;;;;11.25;90.45;99748.19;5033328;28;20463;-54
2023/01/13 10:30:42;;;;;;;0.40;0.30;;;;;;;11.39;90.85;99759.16;5033733;28;20452;-55
2023/01/13 10:33:12;;;;;;;0.47;0.40;;;;;;;11.46;92.94;99757.97;5008579;28;20436;-55
2023/01/13 10:36:14;;;;;;;0.50;0.30;;;;;;;11.61;94.26;99771.56;5019762;28;20488;-55
2023/01/13 10:38:44;;;;;;;0.33;0.23;;;;;;;11.68;93.46;99771.28;5033159;28;20474;-55
2023/01/13 10:41:19;;;;;;;1.87;1.73;;;;;;;11.68;93.68;99765.94;5030398;28;20989;-55
2023/01/13 10:43:51;;;;;;;3.87;0.83;;;;;;;11.40;93.92;99770.66;5027680;28;20454;-55
2023/01/13 10:46:19;;;;;;;19.97;1.27;;;;;;;11.21;93.21;99775.84;5033118;28;20448;-54
2023/01/13 10:48:55;;;;;;;0.50;0.50;;;;;;;11.08;90.85;99782.56;5032808;28;20467;-55
2023/01/13 10:51:24;;;;;;;0.90;0.50;;;;;;;11.14;87.24;99771.69;5033277;28;20451;-55
2023/01/13 10:53:52;;;;;;;2.20;0.40;;;;;;;11.09;86.50;99776.31;5033007;28;20456;-54
2023/01/13 10:56:20;;;;;;;2.53;0.30;;;;;;;11.12;85.88;99782.41;5032994;28;20487;-55
2023/01/13 10:58:47;;;;;;;2.43;0.30;;;;;;;11.24;86.12;99789.91;5032906;28;20472;-55
2023/01/13 11:01:25;;;;;;;1.17;0.40;;;;;;;11.15;83.60;99776.94;5032976;28;20459;-55
2023/01/13 11:03:53;;;;;;;1.87;0.50;;;;;;;11.25;84.10;99782.78;5032868;28;20823;-55
2023/01/13 11:06:26;;;;;;;12.77;0.70;;;;;;;11.37;83.90;99782.28;5032745;28;20458;-55
2023/01/13 11:08:56;;;;;;;3.70;0.77;;;;;;;11.46;84.76;99776.59;5032783;28;20558;-55
2023/01/13 11:11:42;;;;;;;0.50;0.40;;;;;;;11.56;84.45;99780.63;5032733;28;20444;-54
2023/01/13 11:14:40;;;;;;;1.60;0.47;;;;;;;11.52;84.26;99779.03;5032674;28;20458;-55
2023/01/13 11:17:27;;;;;;;3.60;0.63;;;;;;;11.60;83.06;99781.34;5011622;28;20450;-54
2023/01/13 11:20:03;;;;;;;4.33;1.03;;;;;;;11.51;82.26;99784.38;5032418;28;20443;-55
2023/01/13 11:22:41;;;;;;;5.30;1.27;;;;;;;11.56;81.42;99782.41;5032369;28;20439;-55
2023/01/13 11:25:20;;;;;;;4.33;0.70;;;;;;;11.58;82.89;99783.22;5032790;28;20450;-54
2023/01/13 11:27:56;;;;;;;3.53;0.43;;;;;;;11.49;82.78;99772.94;5032365;28;20471;-53
2023/01/13 11:30:42;;;;;;;0.50;0.30;;;;;;;11.63;83.00;99778.56;5032352;28;20556;-54
2023/01/13 11:33:09;;;;;;;0.80;0.50;;;;;;;11.72;81.56;99782.66;5008460;28;20811;-54
2023/01/13 11:36:13;;;;;;;4.93;0.70;;;;;;;11.53;82.06;99782.56;5019204;28;20495;-54
2023/01/13 11:39:02;;;;;;;0.30;0.20;;;;;;;11.72;81.14;99796.81;5020023;28;20537;-50
2023/01/13 11:41:43;;;;;;;1.50;0.50;;;;;;;11.48;82.20;99795.16;5025789;28;20496;-50
2023/01/13 11:44:38;;;;;;;8.60;0.57;;;;;;;11.62;82.52;99794.59;5030020;28;20493;-50
2023/01/13 11:47:06;;;;;;;2.70;1.00;;;;;;;11.71;82.20;99783.59;5032051;28;20450;-50
2023/01/13 11:49:33;;;;;;;0.30;0.20;;;;;;;11.80;80.55;99781.44;5032486;28;20937;-50
2023/01/13 11:52:02;;;;;;;18.13;2.77;;;;;;;11.90;80.86;99783.69;5032184;28;20871;-50
2023/01/13 11:54:36;;;;;;;1.77;0.43;;;;;;;12.13;79.94;99794.25;5032105;28;20942;-50
2023/01/13 11:57:24;;;;;;;3.20;0.77;;;;;;;12.30;77.79;99786.38;5032031;28;20446;-50
2023/01/13 12:00:07;;;;;;;3.93;0.70;;;;;;;12.25;78.62;99793.72;5032094;28;20465;-50
2023/01/13 12:02:52;;;;;;;7.73;1.90;;;;;;;12.44;78.83;99793.78;5010258;28;20447;-50
2023/01/13 12:05:28;;;;;;;2.40;0.53;;;;;;;12.46;79.75;99792.78;5032250;28;20833;-50
2023/01/13 12:08:15;;;;;;;0.40;0.30;;;;;;;12.23;78.21;99803.59;5031787;28;20529;-49
2023/01/13 12:12:17;;;;;;;0.50;0.50;;;;;;;12.12;77.18;99788.06;5010267;28;20444;-50
2023/01/13 12:14:39;;;;;;;0.90;0.60;;;;;;;12.41;78.45;99773.47;5006939;28;20542;-50
2023/01/13 12:17:21;;;;;;;1.00;0.93;;;;;;;12.24;79.65;99767.16;5008796;28;20451;-50
2023/01/13 12:19:50;;;;;;;0.50;0.30;;;;;;;12.09;79.02;99777.53;5031919;28;20455;-50
2023/01/13 12:22:25;;;;;;;1.10;0.50;;;;;;;11.96;78.61;99771.00;5031901;28;20448;-50
2023/01/13 12:24:58;;;;;;;6.70;1.33;;;;;;;12.11;77.51;99773.00;5032031;28;20443;-50
2023/01/13 12:27:49;;;;;;;3.47;0.67;;;;;;;12.05;77.46;99778.59;5036041;28;20467;-50
2023/01/13 12:30:21;;;;;;;4.83;0.90;;;;;;;12.15;77.72;99779.94;5015417;28;20453;-49
2023/01/13 12:32:49;;;;;;;1.17;0.40;;;;;;;12.09;78.32;99782.00;5035428;28;20477;-49
2023/01/13 12:35:29;;;;;;;0.80;0.47;;;;;;;11.90;79.46;99773.03;5024441;28;20488;-51
2023/01/13 12:38:02;;;;;;;0.50;0.30;;;;;;;11.85;77.40;99770.59;5035480;28;20499;-49
2023/01/13 12:40:37;;;;;;;4.33;0.37;;;;;;;11.82;79.82;99766.25;5035785;28;20460;-50